Pittsburg, CA (94565)

6:45 AM PDT on May 05, 2015 (GMT -0700)
Pittsburg's Delta View Golf Course | | Change Station
CLOSE
Current Station
Personal Weather Station
Location: Pittsburg, CA
Elevation: 69 ft
Nearby Weather Stations

Elev 69 ft 38.01 °N, 121.91 °W | Updated 22 seconds ago

Clear
Clear
53.6 °F
Feels Like 53.6 °F
N
19.0
Wind Variable Wind from SW
Gusts 26.5 mph

Today
High -- | Low -- °F
--% Chance of Precip.
Yesterday
High -- | Low -- °F
Precip. -- in
6:07 AM 8:02 PM
Full, 98% visible
Pressure 29.88 in
Visibility 10.0 miles
Clouds Clear
Dew Point 45 °F
Humidity 72%
Rainfall 0.00 in
Snow Depth Not available.
UV 0 out of 12
Pollen 6.70 out of 12
Air Quality Not available.
Flu Activity Sporadic
METAR KCCR 051153Z AUTO 19019G24KT 10SM CLR 12/07 A2992 RMK AO2 SLP117 T01170072 10122 20117 55000

More Conditions Fewer Conditions

Pressure 29.88 in
Visibility 10.0 miles
Clouds Clear
Dew Point 45 °F
Humidity 72%
Rainfall 0.00 in
Snow Depth Not available.
UV 0 out of 12
Pollen 6.70 out of 12
Air Quality Not available.
Flu Activity Sporadic
METAR KCCR 051153Z AUTO 19019G24KT 10SM CLR 12/07 A2992 RMK AO2 SLP117 T01170072 10122 20117 55000

More Conditions Fewer Conditions

Nepal has a long way to go to dig out and rebuild from a devastating earthquake. We have teamed up with several charities and organizations to make contributing to the relief effort as easy as possible.
How you can help: Portlight Strategies | Red Cross

10-Day Weather Forecast

Almanac

Astronomy

May. 05, 2015 Rise Set
Actual Time
Civil Twilight
Nautical Twilight
Astronomical Twilight
Moon
Length of Visible Light
Length of Day
Tomorrow will be .
, % of the Moon is Illuminated

Today's Extremes

State Highs State Lows

Community

WunderPhotos

Upload Photos

1,818,889 photos uploaded!

WunderBlogs® & News

Nearby

Air Quality

  Air Quality AQ Index Pollutant
Not available.

Snow Depth

Station Depth Elevation

Earthquake Activity

City Distance Mag. Time & Date
Minimum magnitude displayed is 2.5.

Coastal Water Temperatures

Place Temperature

Stations

Nearby Weather Stations

Station Location Temp. Windchill Dew Point Humidity Wind Precip. Elev Updated Type